Confidence, Illinois
Current Conditions -  °F | °C
As of 11:35 AM on Saturday 25 Oct 2014 (Local Time) from K1H2 Reporting Station
Clear Clear  
Wind Chill: 72°   Ceiling: Unl
Heat Index: 72°   Visibility: 7mi
Dew Point: 55°   Wind: 5mph
Humidity: 55%   Direction: 280°W
Pressure: 30.02"   Gusts: NA
Location:  38.9907°N, 88.9478°W
Report Text: K1H2 251635Z AUTO 28004KT 7SM CLR 22/13 A3002 RMK AO2 T02230129
Loading
Personal Weather Stations






























Interactive Weather Map
Tropical Storm Tracking
New forecast layout! Learn more

10-Day Weather Forecast

Advertisements
Track Severe Weather on mobile